createdAt,value
2019-03-31T00:01:51.352Z,4.81
2019-03-31T00:05:05.553Z,4.81
2019-03-31T00:08:19.878Z,4.87
2019-03-31T00:11:34.311Z,4.73
2019-03-31T00:14:48.312Z,4.56
2019-03-31T00:18:02.545Z,4.55
2019-03-31T00:21:16.665Z,4.53
2019-03-31T00:24:31.041Z,4.47
2019-03-31T00:27:45.080Z,4.43
2019-03-31T00:30:59.311Z,4.36
2019-03-31T00:34:13.424Z,4.37
2019-03-31T00:37:27.430Z,4.36
2019-03-31T00:40:41.579Z,4.38
2019-03-31T00:43:55.621Z,4.21
2019-03-31T00:47:09.723Z,4.10
2019-03-31T00:50:23.716Z,4.15
2019-03-31T00:53:37.999Z,4.20
2019-03-31T00:56:52.130Z,4.24
2019-03-31T01:00:08.349Z,4.28
2019-03-31T01:03:23.269Z,4.21
2019-03-31T01:06:38.337Z,4.14
2019-03-31T01:09:55.531Z,4.03
2019-03-31T01:13:09.947Z,3.90
2019-03-31T01:16:25.595Z,3.86
2019-03-31T01:19:40.178Z,3.95
2019-03-31T01:22:54.448Z,3.94
2019-03-31T01:26:08.624Z,3.93
2019-03-31T01:29:23.128Z,3.86
2019-03-31T01:32:37.446Z,3.73
2019-03-31T01:35:51.424Z,3.74
2019-03-31T01:39:07.256Z,3.78
2019-03-31T01:42:21.560Z,3.84
2019-03-31T01:45:35.557Z,3.86
2019-03-31T01:48:49.759Z,3.87
2019-03-31T01:52:04.078Z,3.86
2019-03-31T01:55:18.415Z,3.75
2019-03-31T01:58:33.248Z,3.65
2019-03-31T02:01:47.339Z,3.67
2019-03-31T02:05:01.440Z,3.64
2019-03-31T02:08:15.451Z,3.47
2019-03-31T02:11:29.431Z,3.23
2019-03-31T02:14:43.511Z,3.29
2019-03-31T02:17:57.707Z,3.34
2019-03-31T02:21:11.683Z,3.41
2019-03-31T02:24:25.702Z,3.30
2019-03-31T02:27:39.958Z,3.30
2019-03-31T02:30:54.377Z,3.39
2019-03-31T02:34:08.370Z,3.45
2019-03-31T02:37:22.344Z,3.49
2019-03-31T02:40:36.749Z,3.37
2019-03-31T02:43:51.381Z,3.23
2019-03-31T02:47:05.377Z,3.23
2019-03-31T02:50:48.636Z,3.27
2019-03-31T02:54:02.952Z,3.29
2019-03-31T02:57:20.491Z,3.23
2019-03-31T03:00:36.197Z,3.21
2019-03-31T03:07:18.589Z,3.28
2019-03-31T03:10:34.184Z,3.26
2019-03-31T03:13:49.126Z,3.26
2019-03-31T03:17:03.338Z,3.19
2019-03-31T03:20:17.344Z,3.09
2019-03-31T03:23:31.357Z,3.08
2019-03-31T03:26:45.350Z,3.02
2019-03-31T03:29:59.696Z,2.91
2019-03-31T03:33:17.318Z,2.89
2019-03-31T03:36:30.101Z,2.83
2019-03-31T03:39:44.087Z,2.87
2019-03-31T03:42:58.105Z,2.90
2019-03-31T03:46:12.188Z,2.86
2019-03-31T03:49:26.305Z,2.87
2019-03-31T03:52:40.317Z,2.87
2019-03-31T03:55:54.330Z,2.91
2019-03-31T03:59:08.610Z,2.95
2019-03-31T04:02:22.638Z,2.91
2019-03-31T04:05:36.652Z,2.94
2019-03-31T04:08:50.688Z,2.92
2019-03-31T04:12:04.752Z,2.88
2019-03-31T04:15:18.755Z,2.76
2019-03-31T04:18:33.430Z,2.64
2019-03-31T04:21:47.703Z,2.64
2019-03-31T04:25:01.690Z,2.69
2019-03-31T04:28:15.695Z,2.68
2019-03-31T04:31:30.040Z,2.66
2019-03-31T04:34:44.072Z,2.66
2019-03-31T04:37:58.062Z,2.68
2019-03-31T04:41:12.608Z,2.68
2019-03-31T04:44:26.617Z,2.65
2019-03-31T04:47:40.638Z,2.69
2019-03-31T04:50:54.899Z,2.69
2019-03-31T04:54:09.215Z,2.73
2019-03-31T04:57:23.193Z,2.55
2019-03-31T05:00:37.489Z,2.54
2019-03-31T05:04:03.836Z,2.60
2019-03-31T05:07:07.723Z,2.56
2019-03-31T05:10:21.707Z,2.59
2019-03-31T05:13:35.839Z,2.53
2019-03-31T05:16:49.888Z,2.52
2019-03-31T05:20:04.464Z,2.56
2019-03-31T05:23:18.475Z,2.59
2019-03-31T05:26:32.494Z,2.56
2019-03-31T05:29:46.505Z,2.59
2019-03-31T05:33:00.486Z,2.47
2019-03-31T05:36:14.500Z,2.42
2019-03-31T05:39:28.779Z,2.39
2019-03-31T05:42:42.831Z,2.47
2019-03-31T05:45:57.386Z,2.52
2019-03-31T05:49:11.489Z,2.57
2019-03-31T05:52:25.498Z,2.56
2019-03-31T05:55:39.908Z,2.57
2019-03-31T05:59:13.609Z,2.66
2019-03-31T06:02:27.619Z,2.57
2019-03-31T06:05:41.724Z,2.61
2019-03-31T06:08:55.743Z,2.58
2019-03-31T06:12:09.734Z,2.60
2019-03-31T06:15:23.740Z,2.70
2019-03-31T06:18:37.856Z,2.72
2019-03-31T06:21:51.881Z,2.78
2019-03-31T06:25:06.086Z,2.84
2019-03-31T06:28:20.358Z,3.00
2019-03-31T06:31:34.373Z,3.15
2019-03-31T06:34:48.370Z,3.33
2019-03-31T06:38:02.512Z,3.53
2019-03-31T06:41:16.934Z,3.68
2019-03-31T06:44:30.918Z,3.83
2019-03-31T06:47:45.327Z,4.04
2019-03-31T06:50:59.265Z,4.24
2019-03-31T06:54:13.262Z,4.42
2019-03-31T06:57:27.555Z,4.63
2019-03-31T07:00:41.643Z,4.83
2019-03-31T07:03:55.756Z,5.05
2019-03-31T07:07:09.761Z,5.26
2019-03-31T07:10:24.144Z,5.48
2019-03-31T07:13:38.942Z,5.70
2019-03-31T07:16:53.536Z,5.93
2019-03-31T07:20:09.625Z,6.20
2019-03-31T07:23:23.729Z,6.48
2019-03-31T07:26:38.156Z,6.80
2019-03-31T07:29:52.573Z,7.09
2019-03-31T07:33:06.817Z,7.40
2019-03-31T07:36:21.083Z,7.70
2019-03-31T07:39:35.247Z,8.05
2019-03-31T07:42:51.118Z,8.29
2019-03-31T07:46:05.534Z,8.56
2019-03-31T07:49:19.885Z,8.90
2019-03-31T07:52:34.372Z,9.22
2019-03-31T07:55:48.457Z,9.47
2019-03-31T07:59:02.434Z,9.73
2019-03-31T08:02:16.808Z,10.08
2019-03-31T08:05:33.372Z,10.39
2019-03-31T08:08:47.415Z,10.73
2019-03-31T08:12:01.556Z,11.05
2019-03-31T08:15:15.869Z,11.34
2019-03-31T08:18:30.220Z,11.70
2019-03-31T08:21:44.169Z,11.98
2019-03-31T08:24:58.590Z,12.23
2019-03-31T08:28:12.714Z,12.60
2019-03-31T08:31:27.028Z,12.96
2019-03-31T08:34:41.465Z,13.26
2019-03-31T08:37:55.464Z,13.63
2019-03-31T08:41:09.950Z,14.05
2019-03-31T08:44:24.249Z,14.49
2019-03-31T08:47:38.822Z,14.87
2019-03-31T08:50:52.854Z,15.24
2019-03-31T08:54:07.273Z,15.66
2019-03-31T08:57:21.767Z,16.11
2019-03-31T09:00:45.903Z,16.68
2019-03-31T09:04:00.259Z,16.90
2019-03-31T09:07:14.283Z,17.14
2019-03-31T09:10:28.681Z,17.58
2019-03-31T09:13:42.987Z,17.92
2019-03-31T09:16:57.170Z,18.02
2019-03-31T09:20:13.290Z,18.10
2019-03-31T09:23:27.960Z,18.26
2019-03-31T09:26:44.972Z,18.53
2019-03-31T09:29:59.970Z,18.85
2019-03-31T09:33:16.840Z,19.33
2019-03-31T09:36:32.265Z,19.33
2019-03-31T09:39:47.507Z,19.41
2019-03-31T09:43:03.605Z,19.74
2019-03-31T09:46:20.700Z,20.04
2019-03-31T09:49:40.467Z,20.18
2019-03-31T09:52:54.705Z,20.31
2019-03-31T09:56:08.785Z,20.46
2019-03-31T09:59:23.386Z,20.24
2019-03-31T10:02:38.253Z,19.96
2019-03-31T10:05:52.268Z,19.98
2019-03-31T10:09:06.660Z,20.07
2019-03-31T10:12:20.731Z,20.17
2019-03-31T10:15:34.888Z,20.64
2019-03-31T10:18:49.214Z,20.81
2019-03-31T10:22:03.242Z,20.70
2019-03-31T10:25:17.383Z,20.56
2019-03-31T10:28:31.853Z,20.55
2019-03-31T10:31:46.162Z,20.81
2019-03-31T10:35:01.514Z,20.81
2019-03-31T10:38:16.069Z,20.60
2019-03-31T10:41:31.047Z,20.45
2019-03-31T10:44:46.285Z,20.90
2019-03-31T10:48:00.595Z,21.45
2019-03-31T10:51:15.127Z,21.68
2019-03-31T10:54:29.547Z,21.40
2019-03-31T10:57:43.783Z,21.75
2019-03-31T11:00:58.444Z,21.80
2019-03-31T11:04:12.993Z,21.75
2019-03-31T11:07:27.348Z,21.45
2019-03-31T11:10:42.009Z,22.09
2019-03-31T11:13:56.542Z,22.79
2019-03-31T11:17:11.116Z,23.29
2019-03-31T11:20:25.696Z,22.84
2019-03-31T11:23:39.726Z,22.61
2019-03-31T11:26:54.176Z,23.08
2019-03-31T11:30:08.737Z,23.03
2019-03-31T11:33:22.764Z,22.90
2019-03-31T11:36:36.856Z,23.45
2019-03-31T11:39:50.871Z,23.99
2019-03-31T11:43:05.300Z,23.90
2019-03-31T11:46:19.568Z,24.00
2019-03-31T11:49:33.681Z,24.10
2019-03-31T11:52:48.099Z,24.02
2019-03-31T11:56:02.099Z,23.70
2019-03-31T11:59:16.130Z,23.94
2019-03-31T12:02:30.297Z,24.38
2019-03-31T12:05:44.313Z,24.72
2019-03-31T12:08:58.359Z,25.26
2019-03-31T12:12:12.459Z,25.49
2019-03-31T12:15:27.137Z,25.12
2019-03-31T12:18:41.477Z,24.92
2019-03-31T12:21:55.609Z,24.89
2019-03-31T12:25:09.665Z,25.21
2019-03-31T12:28:24.115Z,25.45
2019-03-31T12:31:38.200Z,25.54
2019-03-31T12:34:52.434Z,25.39
2019-03-31T12:38:06.533Z,25.87
2019-03-31T12:41:20.763Z,24.82
2019-03-31T12:44:35.067Z,23.50
2019-03-31T12:47:49.068Z,23.47
2019-03-31T12:51:03.279Z,24.12
2019-03-31T12:54:17.420Z,24.91
2019-03-31T12:57:31.558Z,24.41
2019-03-31T13:00:46.051Z,23.48
2019-03-31T13:04:00.140Z,22.76
2019-03-31T13:07:15.103Z,22.78
2019-03-31T13:10:29.289Z,22.53
2019-03-31T13:13:43.412Z,21.78
2019-03-31T13:16:57.432Z,21.58
2019-03-31T13:20:12.262Z,22.89
2019-03-31T13:23:26.799Z,24.12
2019-03-31T13:26:40.903Z,25.05
2019-03-31T13:29:55.037Z,25.17
2019-03-31T13:33:09.059Z,24.81
2019-03-31T13:36:23.082Z,24.74
2019-03-31T13:39:37.099Z,23.98
2019-03-31T13:42:51.388Z,22.56
2019-03-31T13:46:05.409Z,21.71
2019-03-31T13:49:20.008Z,21.53
2019-03-31T13:52:34.585Z,22.14
2019-03-31T13:55:49.747Z,23.55
2019-03-31T13:59:04.059Z,25.04
2019-03-31T14:02:18.587Z,24.95
2019-03-31T14:05:32.788Z,24.70
2019-03-31T14:08:46.910Z,23.83
2019-03-31T14:12:00.974Z,22.72
2019-03-31T14:15:19.427Z,22.05
2019-03-31T14:18:31.199Z,21.83
2019-03-31T14:21:45.900Z,21.49
2019-03-31T14:25:00.539Z,21.04
2019-03-31T14:28:15.204Z,20.57
2019-03-31T14:31:29.276Z,21.01
2019-03-31T14:34:43.887Z,21.97
2019-03-31T14:37:58.353Z,22.55
2019-03-31T14:41:12.784Z,22.84
2019-03-31T14:44:26.799Z,23.59
2019-03-31T14:47:41.167Z,24.68
2019-03-31T14:50:55.500Z,23.90
2019-03-31T14:54:09.618Z,23.21
2019-03-31T14:57:24.092Z,22.85
2019-03-31T15:00:38.268Z,22.69
2019-03-31T15:03:52.954Z,22.62
2019-03-31T15:07:07.091Z,21.94
2019-03-31T15:10:21.278Z,22.09
2019-03-31T15:13:35.578Z,22.84
2019-03-31T15:16:49.829Z,23.29
2019-03-31T15:20:04.802Z,22.94
2019-03-31T15:23:28.965Z,22.26
2019-03-31T15:26:40.974Z,22.30
2019-03-31T15:29:55.710Z,22.06
2019-03-31T15:33:35.210Z,22.16
2019-03-31T15:36:49.742Z,22.59
2019-03-31T15:40:05.041Z,22.68
2019-03-31T15:43:19.058Z,22.07
2019-03-31T15:46:33.430Z,22.00
2019-03-31T15:49:47.744Z,21.83
2019-03-31T15:53:01.994Z,21.45
2019-03-31T15:56:16.084Z,21.33
2019-03-31T15:59:30.126Z,21.10
2019-03-31T16:02:44.312Z,20.89
2019-03-31T16:05:58.775Z,20.53
2019-03-31T16:09:22.842Z,20.38
2019-03-31T16:12:27.663Z,20.25
2019-03-31T16:15:41.176Z,19.79
2019-03-31T16:18:54.694Z,19.15
2019-03-31T16:22:08.517Z,18.85
2019-03-31T16:25:26.514Z,18.42
2019-03-31T16:28:39.983Z,17.97
2019-03-31T16:31:53.553Z,17.68
2019-03-31T16:35:07.174Z,17.53
2019-03-31T16:38:21.062Z,17.43
2019-03-31T16:41:34.906Z,17.11
2019-03-31T16:44:58.190Z,16.99
2019-03-31T16:48:04.733Z,17.03
2019-03-31T16:51:18.495Z,16.92
2019-03-31T16:54:31.976Z,16.69
2019-03-31T16:57:45.801Z,16.83
2019-03-31T17:00:59.361Z,17.16
2019-03-31T17:04:12.825Z,17.16
2019-03-31T17:07:26.975Z,17.09
2019-03-31T17:10:40.764Z,16.82
2019-03-31T17:13:54.341Z,16.65
2019-03-31T17:17:07.832Z,16.57
2019-03-31T17:20:21.872Z,16.52
2019-03-31T17:23:35.330Z,16.10
2019-03-31T17:26:49.076Z,15.97
2019-03-31T17:30:04.212Z,15.94
2019-03-31T17:33:17.996Z,15.71
2019-03-31T17:36:31.472Z,15.60
2019-03-31T17:39:44.936Z,15.47
2019-03-31T17:42:58.405Z,15.39
2019-03-31T17:46:11.875Z,15.09
2019-03-31T17:49:25.694Z,14.93
2019-03-31T17:52:39.152Z,14.76
2019-03-31T17:55:52.737Z,14.63
2019-03-31T17:59:08.987Z,14.53
2019-03-31T18:02:23.088Z,14.52
2019-03-31T18:05:36.572Z,14.45
2019-03-31T18:08:50.037Z,14.31
2019-03-31T18:12:03.621Z,14.27
2019-03-31T18:15:17.084Z,14.13
2019-03-31T18:18:30.905Z,14.04
2019-03-31T18:21:44.637Z,13.97
2019-03-31T18:24:58.135Z,13.89
2019-03-31T18:28:12.025Z,13.80
2019-03-31T18:31:25.537Z,13.71
2019-03-31T18:34:38.969Z,13.58
2019-03-31T18:37:52.792Z,13.42
2019-03-31T18:41:06.419Z,13.30
2019-03-31T18:44:19.976Z,13.10
2019-03-31T18:47:33.798Z,13.01
2019-03-31T18:50:47.449Z,12.93
2019-03-31T18:54:16.458Z,12.83
2019-03-31T18:58:04.998Z,12.59
2019-03-31T19:01:29.518Z,12.54
2019-03-31T19:05:11.834Z,12.49
2019-03-31T19:08:49.465Z,12.55
2019-03-31T19:12:29.459Z,12.55
2019-03-31T19:15:53.821Z,12.47
2019-03-31T19:19:18.028Z,12.35
2019-03-31T19:22:38.544Z,12.48
2019-03-31T19:26:18.052Z,12.46
2019-03-31T19:29:44.565Z,12.35
2019-03-31T19:33:04.995Z,12.35
2019-03-31T19:36:38.679Z,12.18
2019-03-31T19:40:12.242Z,12.06
2019-03-31T19:43:32.787Z,11.96
2019-03-31T19:46:55.878Z,11.95
2019-03-31T19:50:22.362Z,11.95
2019-03-31T19:53:54.280Z,11.82
2019-03-31T19:57:30.759Z,11.71
2019-03-31T20:01:06.793Z,11.61
2019-03-31T20:04:30.090Z,11.49
2019-03-31T20:08:15.880Z,11.45
2019-03-31T20:11:51.687Z,11.31
2019-03-31T20:15:33.410Z,11.28
2019-03-31T20:18:55.490Z,11.23
2019-03-31T20:22:37.904Z,11.12
2019-03-31T20:26:12.739Z,11.13
2019-03-31T20:29:37.245Z,11.03
2019-03-31T20:33:12.653Z,10.93
2019-03-31T20:36:50.200Z,10.92
2019-03-31T20:40:17.074Z,10.81
2019-03-31T20:44:02.574Z,10.68
2019-03-31T20:47:16.343Z,10.64
2019-03-31T20:50:29.787Z,10.61
2019-03-31T20:53:43.360Z,10.59
2019-03-31T20:56:56.977Z,10.53
2019-03-31T21:00:10.925Z,10.37
2019-03-31T21:03:24.383Z,10.38
2019-03-31T21:06:37.852Z,10.39
2019-03-31T21:09:51.572Z,10.25
2019-03-31T21:13:05.049Z,10.12
2019-03-31T21:16:18.512Z,10.05
2019-03-31T21:19:31.968Z,10.02
2019-03-31T21:22:45.445Z,9.98
2019-03-31T21:25:58.920Z,9.98
2019-03-31T21:29:12.391Z,9.87
2019-03-31T21:32:25.864Z,9.82
2019-03-31T21:35:39.559Z,9.88
2019-03-31T21:38:53.323Z,9.83
2019-03-31T21:42:07.022Z,9.82
2019-03-31T21:45:20.795Z,9.71
2019-03-31T21:48:34.258Z,9.65
2019-03-31T21:51:47.706Z,9.60
2019-03-31T21:55:01.449Z,9.46
2019-03-31T21:58:14.917Z,9.45
2019-03-31T22:01:29.902Z,9.37
2019-03-31T22:04:43.596Z,9.26
2019-03-31T22:07:57.307Z,9.20
2019-03-31T22:11:11.029Z,9.16
2019-03-31T22:14:24.839Z,9.09
2019-03-31T22:17:38.458Z,9.12
2019-03-31T22:20:52.300Z,9.07
2019-03-31T22:24:06.143Z,8.99
2019-03-31T22:27:19.599Z,8.96
2019-03-31T22:30:35.258Z,8.96
2019-03-31T22:33:48.723Z,8.95
2019-03-31T22:37:02.172Z,8.84
2019-03-31T22:40:15.662Z,8.85
2019-03-31T22:43:29.128Z,8.78
2019-03-31T22:46:53.675Z,8.77
2019-03-31T22:49:57.930Z,8.74
2019-03-31T22:53:11.691Z,8.66
2019-03-31T22:56:25.146Z,8.49
2019-03-31T22:59:38.867Z,8.45
2019-03-31T23:02:52.469Z,8.39
2019-03-31T23:06:05.914Z,8.26
2019-03-31T23:09:19.371Z,8.18
2019-03-31T23:12:32.840Z,7.98
2019-03-31T23:15:46.531Z,7.87
2019-03-31T23:18:59.989Z,7.76
2019-03-31T23:22:13.474Z,7.64
2019-03-31T23:25:26.942Z,7.57
2019-03-31T23:28:46.282Z,7.47
2019-03-31T23:31:59.736Z,7.28
2019-03-31T23:35:13.361Z,7.20
2019-03-31T23:38:26.787Z,7.14
2019-03-31T23:41:40.505Z,7.12
2019-03-31T23:44:54.260Z,7.06
2019-03-31T23:48:07.735Z,7.04
2019-03-31T23:51:21.198Z,7.03
2019-03-31T23:54:34.679Z,6.95
2019-03-31T23:57:48.144Z,6.81
